Time;durP1;ratioP1;P1;durP2;ratioP2;P2;SDS_P1;SDS_P2;PMS_P1;PMS_P2;Temp;Humidity;BMP_temperature;BMP_pressure;BME280_temperature;BME280_humidity;BME280_pressure;Samples;Min_cycle;Max_cycle;Signal;HPM_P1;HPM_P2
2023/03/04 00:02:04;;;;;;;;;;;7.70;63.50;;;8.12;44.92;99226.78;5044314;27;113704;-71
2023/03/04 00:04:30;;;;;;;;;;;7.70;63.60;;;8.10;45.09;99226.25;5049001;27;124280;-71
2023/03/04 00:06:56;;;;;;;;;;;7.70;63.70;;;8.09;45.17;99233.69;5044758;27;124578;-71
2023/03/04 00:09:23;;;;;;;;;;;7.70;63.80;;;8.11;45.12;99231.47;5046513;27;115290;-71
2023/03/04 00:11:49;;;;;;;;;;;7.70;63.90;;;8.11;45.05;99236.13;5046838;27;113757;-71
2023/03/04 00:14:15;;;;;;;;;;;7.60;63.80;;;8.10;45.31;99229.00;5042762;27;124953;-70
2023/03/04 00:16:42;;;;;;;;;;;7.60;63.80;;;8.07;45.31;99230.38;5048930;27;123948;-71
2023/03/04 00:19:09;;;;;;;;;;;7.60;63.80;;;8.06;45.19;99233.41;5053506;27;115037;-71
2023/03/04 00:21:35;;;;;;;;;;;7.60;63.80;;;8.04;45.28;99230.16;5052434;27;114289;-71
2023/03/04 00:24:02;;;;;;;;;;;7.60;63.80;;;7.99;45.24;99232.94;5057595;27;124177;-72
2023/03/04 00:26:28;;;;;;;;;;;7.60;63.80;;;7.92;45.17;99234.03;5048658;27;123626;-72
2023/03/04 00:28:55;;;;;;;;;;;7.50;63.70;;;7.87;45.47;99228.59;5030923;27;113495;-71
2023/03/04 00:31:21;;;;;;;;;;;7.50;63.80;;;7.81;45.26;99243.47;5035513;27;112915;-71
2023/03/04 00:33:47;;;;;;;;;;;7.50;63.80;;;7.73;45.30;99236.63;5050622;27;124189;-71
2023/03/04 00:36:13;;;;;;;;;;;7.40;63.80;;;7.69;45.39;99237.50;5043300;27;124256;-70
2023/03/04 00:38:40;;;;;;;;;;;7.30;63.80;;;7.65;45.70;99228.97;5050020;27;114321;-72
2023/03/04 00:41:06;;;;;;;;;;;7.30;63.90;;;7.63;45.54;99233.09;5049037;27;113390;-71
2023/03/04 00:43:32;;;;;;;;;;;7.30;64.00;;;7.60;45.89;99236.44;5050606;27;124188;-71
2023/03/04 00:45:58;;;;;;;;;;;7.30;64.10;;;7.58;45.87;99233.16;5049516;27;123828;-71
2023/03/04 00:48:25;;;;;;;;;;;7.20;64.10;;;7.56;45.81;99247.16;5051039;27;114411;-71
2023/03/04 00:50:52;;;;;;;;;;;7.20;64.30;;;7.56;45.77;99240.84;5048431;27;113767;-71
2023/03/04 00:53:19;;;;;;;;;;;7.20;64.40;;;7.56;46.03;99238.09;5048768;27;124302;-71
2023/03/04 00:55:46;;;;;;;;;;;7.10;64.30;;;7.54;45.87;99232.88;5050245;27;123858;-71
2023/03/04 00:58:12;;;;;;;;;;;7.10;64.30;;;7.56;45.71;99238.09;5047855;27;115322;-71
2023/03/04 01:00:38;;;;;;;;;;;7.10;64.40;;;7.55;45.92;99239.19;5050212;27;114524;-72
2023/03/04 01:03:05;;;;;;;;;;;7.10;64.40;;;7.53;45.54;99232.06;5048453;27;124007;-71
2023/03/04 01:05:33;;;;;;;;;;;7.10;64.50;;;7.52;45.64;99235.94;5042396;27;124548;-71
2023/03/04 01:07:59;;;;;;;;;;;7.10;64.50;;;7.50;45.98;99232.63;5040368;27;114668;-70
2023/03/04 01:10:25;;;;;;;;;;;7.10;64.50;;;7.50;45.62;99227.13;5044009;27;113903;-71
2023/03/04 01:12:52;;;;;;;;;;;7.10;64.60;;;7.49;45.69;99225.47;5046521;27;124194;-71
2023/03/04 01:15:18;;;;;;;;;;;7.00;64.50;;;7.47;45.75;99221.38;5046640;27;124346;-71
2023/03/04 01:17:44;;;;;;;;;;;7.00;64.50;;;7.45;45.59;99229.09;5047579;27;114675;-71
2023/03/04 01:20:11;;;;;;;;;;;7.00;64.50;;;7.41;45.59;99227.97;5042455;27;113892;-71
2023/03/04 01:22:38;;;;;;;;;;;7.00;64.50;;;7.32;45.45;99225.00;5041597;27;124662;-71
2023/03/04 01:25:05;;;;;;;;;;;6.90;64.40;;;7.25;45.87;99221.72;5040390;27;123152;-71
2023/03/04 01:27:31;;;;;;;;;;;6.90;64.40;;;7.23;46.36;99221.19;5047914;27;114538;-71
2023/03/04 01:29:57;;;;;;;;;;;6.80;64.40;;;7.23;46.22;99221.19;5048261;27;113672;-71
2023/03/04 01:32:24;;;;;;;;;;;6.80;64.50;;;7.22;46.23;99214.84;5049605;27;124932;-71
2023/03/04 01:34:50;;;;;;;;;;;6.80;64.60;;;7.22;46.08;99220.34;5045412;27;124593;-71
2023/03/04 01:37:16;;;;;;;;;;;6.80;64.60;;;7.21;45.92;99224.22;5047461;27;114381;-72
2023/03/04 01:39:43;;;;;;;;;;;6.80;64.60;;;7.20;46.24;99216.22;5050198;27;113833;-71
2023/03/04 01:42:24;;;;;;;;;;;6.80;64.70;;;7.20;46.35;99213.50;5049694;27;124556;-71
2023/03/04 01:44:51;;;;;;;;;;;6.70;64.60;;;7.13;46.21;99219.28;5045682;27;122894;-71
2023/03/04 01:47:18;;;;;;;;;;;6.70;64.60;;;7.05;46.16;99212.44;5043770;27;115677;-71
2023/03/04 01:49:47;;;;;;;;;;;6.70;64.60;;;6.93;46.44;99220.19;5048364;27;114696;-71
2023/03/04 01:52:14;;;;;;;;;;;6.60;64.50;;;6.85;46.15;99209.72;5038278;27;123919;-71
2023/03/04 01:54:40;;;;;;;;;;;6.50;64.60;;;6.77;46.21;99213.03;5040631;27;123947;-71
2023/03/04 01:57:24;;;;;;;;;;;6.40;65.00;;;6.64;46.13;99215.28;5050111;27;114457;-71
2023/03/04 02:00:30;;;;;;;;;;;6.40;64.80;;;6.51;46.39;99215.84;5044907;27;113845;-71
2023/03/04 02:03:23;;;;;;;;;;;6.30;64.90;;;6.38;46.58;99219.13;5010192;27;123381;-71
2023/03/04 02:05:51;;;;;;;;;;;6.10;65.00;;;6.29;47.07;99223.53;5056907;27;123721;-71
2023/03/04 02:08:20;;;;;;;;;;;6.10;65.20;;;6.25;47.37;99223.25;5064961;27;114287;-71
2023/03/04 02:10:47;;;;;;;;;;;6.00;65.40;;;6.17;47.39;99216.38;5045569;27;112917;-71
2023/03/04 02:13:14;;;;;;;;;;;5.90;65.50;;;6.13;47.39;99212.53;5038334;27;124140;-71
2023/03/04 02:15:42;;;;;;;;;;;5.90;65.70;;;6.10;47.72;99207.59;5047072;27;123585;-71
2023/03/04 02:18:19;;;;;;;;;;;5.80;65.80;;;6.10;47.83;99213.09;5049733;27;114063;-71
2023/03/04 02:20:55;;;;;;;;;;;5.80;65.90;;;6.12;47.88;99207.31;5048641;27;113594;-71
2023/03/04 02:23:28;;;;;;;;;;;5.80;66.10;;;6.11;48.23;99211.16;5046183;27;123381;-74
2023/03/04 02:26:21;;;;;;;;;;;5.80;66.30;;;6.08;47.53;99214.47;5054984;27;121551;-71
2023/03/04 02:28:50;;;;;;;;;;;5.70;66.20;;;6.04;47.58;99211.41;5032590;27;113662;-71
2023/03/04 02:31:27;;;;;;;;;;;5.70;66.30;;;6.05;47.96;99212.28;5050466;27;113878;-71
2023/03/04 02:33:55;;;;;;;;;;;5.70;66.40;;;6.02;48.12;99205.41;5039276;27;123534;-71
2023/03/04 02:36:22;;;;;;;;;;;5.70;66.50;;;6.03;48.03;99211.72;5033686;27;123523;-71
2023/03/04 02:38:52;;;;;;;;;;;5.70;66.60;;;6.01;47.96;99208.41;5034946;27;115027;-70
2023/03/04 02:41:22;;;;;;;;;;;5.60;66.70;;;5.92;47.96;99208.91;5022238;27;113723;-71
2023/03/04 02:43:52;;;;;;;;;;;5.60;66.90;;;5.83;48.36;99209.72;5042334;27;124119;-71
2023/03/04 02:46:19;;;;;;;;;;;5.50;66.80;;;5.72;48.51;99215.19;5050611;27;123267;-70
2023/03/04 02:48:45;;;;;;;;;;;5.40;67.40;;;5.61;48.66;99212.69;5043632;27;114425;-70
2023/03/04 02:51:11;;;;;;;;;;;5.30;67.40;;;5.52;48.92;99217.88;5049211;27;113505;-70
2023/03/04 02:53:38;;;;;;;;;;;5.20;67.30;;;5.46;49.05;99216.22;5048558;27;123100;-70
2023/03/04 02:56:05;;;;;;;;;;;5.20;67.50;;;5.39;49.53;99216.44;5048891;27;123992;-71
2023/03/04 02:58:32;;;;;;;;;;;5.10;67.70;;;5.37;49.06;99215.06;5044945;27;114201;-70
2023/03/04 03:00:58;;;;;;;;;;;5.10;67.90;;;5.32;49.20;99222.19;5056513;27;112903;-70
2023/03/04 03:03:25;;;;;;;;;;;5.00;68.00;;;5.26;49.66;99225.16;5046074;27;124002;-70
2023/03/04 03:05:52;;;;;;;;;;;4.90;68.10;;;5.23;50.27;99222.94;5043189;27;123980;-70
2023/03/04 03:08:19;;;;;;;;;;;4.90;68.20;;;5.20;49.09;99218.81;5032920;27;113325;-70
2023/03/04 03:10:45;;;;;;;;;;;4.90;68.40;;;5.14;50.01;99219.91;5048686;27;113645;-70
2023/03/04 03:13:12;;;;;;;;;;;4.80;68.60;;;5.11;50.17;99222.34;5046613;27;124465;-70
2023/03/04 03:15:41;;;;;;;;;;;4.80;68.80;;;5.08;49.85;99219.06;5048365;27;123936;-70
2023/03/04 03:18:10;;;;;;;;;;;4.80;68.80;;;5.05;49.64;99216.84;5047022;27;114306;-70
2023/03/04 03:20:37;;;;;;;;;;;4.70;68.90;;;5.03;49.78;99218.22;5043132;27;114261;-70
2023/03/04 03:23:03;;;;;;;;;;;4.70;69.00;;;5.00;50.17;99219.56;5032711;27;123876;-71
2023/03/04 03:25:30;;;;;;;;;;;4.70;69.20;;;4.98;50.36;99218.19;5048178;27;123946;-70
2023/03/04 03:27:56;;;;;;;;;;;4.70;69.20;;;4.95;49.90;99218.72;5044306;27;115507;-70
2023/03/04 03:30:22;;;;;;;;;;;4.60;69.40;;;4.92;49.94;99211.03;5048538;27;114693;-70
2023/03/04 03:32:48;;;;;;;;;;;4.60;69.50;;;4.93;49.88;99224.44;5046502;27;123774;-70
2023/03/04 03:35:15;;;;;;;;;;;4.50;69.50;;;4.93;50.62;99218.16;5042801;27;123836;-70
2023/03/04 03:37:41;;;;;;;;;;;4.60;69.70;;;4.86;50.40;99213.75;5049449;27;114452;-70
2023/03/04 03:40:08;;;;;;;;;;;4.60;70.00;;;4.84;50.33;99217.81;5044690;27;113863;-70
2023/03/04 03:42:34;;;;;;;;;;;4.50;69.90;;;4.81;50.69;99208.22;5060025;27;123895;-70
2023/03/04 03:45:01;;;;;;;;;;;4.50;70.10;;;4.75;50.46;99222.94;5051627;27;123823;-70
2023/03/04 03:47:27;;;;;;;;;;;4.50;70.30;;;4.69;50.87;99213.06;5051133;27;114665;-70
2023/03/04 03:49:53;;;;;;;;;;;4.40;70.20;;;4.66;51.08;99216.34;5051537;27;113716;-70
2023/03/04 03:52:20;;;;;;;;;;;4.30;70.30;;;4.68;50.71;99211.44;5048581;27;123990;-70
2023/03/04 03:54:46;;;;;;;;;;;4.40;70.60;;;4.72;50.54;99209.78;5054873;27;124061;-71
2023/03/04 03:57:12;;;;;;;;;;;5.60;72.70;;;4.78;50.54;99210.66;5040021;27;112780;-70
2023/03/04 03:59:38;;;;;;;;;;;4.30;70.80;;;4.82;50.73;99207.13;5050961;27;113019;-72
2023/03/04 04:02:05;;;;;;;;;;;4.40;71.00;;;4.88;50.72;99207.97;5040319;27;124220;-70
2023/03/04 04:04:31;;;;;;;;;;;4.40;71.10;;;4.92;51.11;99216.50;5043556;27;124056;-70
2023/03/04 04:06:58;;;;;;;;;;;4.40;71.10;;;4.96;50.73;99212.94;5043236;27;114378;-70
2023/03/04 04:09:24;;;;;;;;;;;4.50;71.20;;;5.01;51.10;99214.91;5046247;27;113791;-70
2023/03/04 04:11:50;;;;;;;;;;;4.50;71.20;;;5.03;50.96;99212.72;5048335;27;124095;-70
2023/03/04 04:14:17;;;;;;;;;;;4.60;71.30;;;5.05;50.86;99216.84;5050929;27;123647;-70
2023/03/04 04:16:43;;;;;;;;;;;4.60;71.30;;;5.09;51.21;99222.63;5055808;27;115370;-70
2023/03/04 04:19:16;;;;;;;;;;;4.60;71.30;;;5.13;50.39;99220.16;5052113;27;114088;-70
2023/03/04 04:21:42;;;;;;;;;;;4.60;71.30;;;5.13;50.79;99212.78;5049516;27;124661;-71
2023/03/04 04:24:08;;;;;;;;;;;4.60;71.20;;;5.16;50.74;99215.00;5062261;27;125498;-70
2023/03/04 04:26:34;;;;;;;;;;;4.70;71.30;;;5.17;50.48;99218.53;5043963;27;113501;-70
2023/03/04 04:29:01;;;;;;;;;;;4.70;71.20;;;5.18;50.91;99223.75;5046738;27;114058;-70
2023/03/04 04:31:27;;;;;;;;;;;4.70;71.20;;;5.21;50.19;99233.34;5042644;27;123627;-70
2023/03/04 04:33:53;;;;;;;;;;;4.70;71.20;;;5.21;50.94;99220.50;5048472;27;123848;-70
2023/03/04 04:36:20;;;;;;;;;;;4.70;71.20;;;5.22;50.71;99216.66;5051482;27;114746;-71
2023/03/04 04:38:48;;;;;;;;;;;4.70;71.20;;;5.21;50.24;99220.50;5047190;27;114411;-71
2023/03/04 04:41:29;;;;;;;;;;;4.70;71.20;;;5.21;50.75;99225.97;5049967;27;124318;-72
2023/03/04 04:43:55;;;;;;;;;;;4.70;71.30;;;5.13;50.41;99229.22;5043477;27;124033;-70
2023/03/04 04:46:21;;;;;;;;;;;4.60;71.20;;;5.11;50.12;99236.06;5050041;27;114536;-71
2023/03/04 04:48:48;;;;;;;;;;;4.60;71.30;;;5.10;50.58;99227.00;5044083;27;114008;-71
2023/03/04 04:51:14;;;;;;;;;;;4.60;71.30;;;5.07;50.53;99230.25;5052393;27;123481;-71
2023/03/04 04:53:41;;;;;;;;;;;4.60;71.40;;;5.07;50.57;99227.53;5051497;27;124532;-71
2023/03/04 04:56:09;;;;;;;;;;;4.60;71.40;;;5.06;50.90;99228.63;5049554;27;114621;-72
2023/03/04 04:58:35;;;;;;;;;;;4.60;71.50;;;5.04;50.87;99230.78;5051279;27;113716;-70
2023/03/04 05:01:02;;;;;;;;;;;4.60;71.40;;;5.02;50.90;99217.38;5049935;27;124079;-71
2023/03/04 05:03:28;;;;;;;;;;;5.00;71.80;;;5.04;50.83;99222.59;5042413;27;123899;-71
2023/03/04 05:05:54;;;;;;;;;;;4.60;71.50;;;5.03;51.11;99224.50;5044706;27;114533;-70
2023/03/04 05:08:21;;;;;;;;;;;4.60;71.50;;;5.03;50.83;99229.16;5050502;27;113653;-70
2023/03/04 05:10:47;;;;;;;;;;;4.60;71.60;;;5.02;51.12;99222.88;5045127;27;123980;-71
2023/03/04 05:13:13;;;;;;;;;;;4.60;71.60;;;5.03;50.42;99231.91;5050659;27;124102;-71
2023/03/04 05:15:40;;;;;;;;;;;4.60;71.60;;;5.02;50.71;99238.44;5049593;27;114668;-71
2023/03/04 05:18:06;;;;;;;;;;;4.60;71.70;;;5.02;50.71;99241.19;5050786;27;113768;-71
2023/03/04 05:20:52;;;;;;;;;;;4.60;71.70;;;5.04;50.26;99241.75;5064956;27;123445;-70
2023/03/04 05:23:18;;;;;;;;;;;4.50;71.70;;;5.01;50.61;99236.81;5036572;28;123559;-71
2023/03/04 05:25:45;;;;;;;;;;;4.60;71.80;;;4.98;50.65;99242.81;5039713;27;113838;-75
2023/03/04 05:28:11;;;;;;;;;;;4.50;71.70;;;4.97;50.75;99247.47;5069369;27;113287;-72
2023/03/04 05:30:39;;;;;;;;;;;4.50;71.80;;;4.97;51.08;99246.63;5053646;27;124265;-71
2023/03/04 05:33:07;;;;;;;;;;;4.50;71.90;;;4.95;50.95;99243.34;5049631;27;123605;-71
2023/03/04 05:35:35;;;;;;;;;;;4.50;71.80;;;4.93;50.70;99251.00;5050476;27;114487;-71
2023/03/04 05:38:03;;;;;;;;;;;4.50;71.90;;;4.93;50.90;99253.75;5049625;27;113966;-70
2023/03/04 05:40:29;;;;;;;;;;;4.40;71.90;;;4.94;50.83;99255.38;5028801;28;123182;-70
2023/03/04 05:42:56;;;;;;;;;;;4.40;71.90;;;4.92;51.01;99250.19;5058747;27;124324;-71
2023/03/04 05:45:23;;;;;;;;;;;4.40;71.90;;;4.88;50.88;99249.88;5052415;27;114017;-71
2023/03/04 05:47:49;;;;;;;;;;;4.40;71.90;;;4.82;51.24;99256.41;5049097;27;114041;-71
2023/03/04 05:50:20;;;;;;;;;;;4.40;71.90;;;4.80;51.65;99255.00;5049978;27;124149;-71
2023/03/04 05:52:47;;;;;;;;;;;4.40;72.10;;;4.77;51.00;99253.63;5049734;27;124636;-71
2023/03/04 05:55:14;;;;;;;;;;;4.30;72.00;;;4.76;51.62;99251.16;5049547;27;115199;-71
2023/03/04 05:57:40;;;;;;;;;;;4.30;72.10;;;4.73;51.00;99258.00;5040189;27;114944;-71
2023/03/04 06:00:12;;;;;;;;;;;4.30;72.10;;;4.70;51.64;99260.41;5034744;27;123314;-71
2023/03/04 06:02:40;;;;;;;;;;;4.30;72.10;;;4.69;50.97;99261.50;5035902;27;123381;-74
2023/03/04 06:05:08;;;;;;;;;;;4.20;72.10;;;4.66;51.83;99265.59;5019520;27;113742;-71
2023/03/04 06:07:34;;;;;;;;;;;4.20;72.20;;;4.65;51.16;99263.97;5043758;27;112618;-71
2023/03/04 06:10:01;;;;;;;;;;;4.20;72.30;;;4.63;51.23;99266.13;5030605;27;124072;-71
2023/03/04 06:12:31;;;;;;;;;;;4.20;72.40;;;4.61;51.43;99266.38;5027310;27;125222;-71
2023/03/04 06:14:57;;;;;;;;;;;4.20;72.50;;;4.61;51.10;99269.09;5046528;27;113682;-71
2023/03/04 06:17:24;;;;;;;;;;;4.20;72.60;;;4.62;51.00;99270.78;5035988;27;113335;-71
2023/03/04 06:19:50;;;;;;;;;;;4.20;72.70;;;4.61;51.99;99265.56;5033425;27;123311;-71
2023/03/04 06:22:17;;;;;;;;;;;4.20;72.70;;;4.57;51.63;99280.84;5034099;27;122819;-71
2023/03/04 06:24:43;;;;;;;;;;;4.10;72.60;;;4.53;51.75;99282.44;5035749;27;114452;-72
2023/03/04 06:27:09;;;;;;;;;;;4.10;72.60;;;4.51;52.19;99282.69;5039450;27;114012;-71
2023/03/04 06:29:36;;;;;;;;;;;4.10;72.70;;;4.48;51.41;99287.88;5032376;27;124169;-71
2023/03/04 06:32:02;;;;;;;;;;;4.10;72.80;;;4.45;52.16;99286.50;5036566;27;124443;-71
2023/03/04 06:34:28;;;;;;;;;;;4.00;72.90;;;4.45;52.43;99288.41;5038234;27;114594;-71
2023/03/04 06:36:55;;;;;;;;;;;4.00;73.00;;;4.42;51.38;99292.47;5042882;27;114145;-71
2023/03/04 06:39:21;;;;;;;;;;;4.90;74.00;;;4.38;51.88;99294.94;5041483;27;124193;-71
2023/03/04 06:41:47;;;;;;;;;;;3.90;73.20;;;4.34;51.70;99299.25;5033039;27;123832;-71
2023/03/04 06:44:14;;;;;;;;;;;3.90;73.40;;;4.30;52.13;99303.59;5045823;27;115286;-71
2023/03/04 06:46:40;;;;;;;;;;;3.90;73.60;;;4.29;52.47;99301.94;5035389;27;113824;-72
2023/03/04 06:49:06;;;;;;;;;;;3.80;73.70;;;4.27;52.53;99304.13;5033415;27;124668;-74
2023/03/04 06:51:33;;;;;;;;;;;3.80;73.90;;;4.29;52.33;99309.31;5035264;27;124015;-71
2023/03/04 06:54:00;;;;;;;;;;;3.80;74.00;;;4.32;52.28;99312.34;5044076;27;115141;-71
2023/03/04 06:56:26;;;;;;;;;;;3.80;74.10;;;4.32;52.40;99317.81;5046726;27;113357;-71
2023/03/04 06:58:53;;;;;;;;;;;3.80;74.20;;;4.34;52.56;99312.94;5038061;27;124634;-71
2023/03/04 07:01:21;;;;;;;;;;;3.80;74.20;;;4.34;52.22;99314.84;5033385;27;122496;-71
2023/03/04 07:03:48;;;;;;;;;;;3.80;74.30;;;4.35;52.32;99322.81;5042648;27;113637;-71
2023/03/04 07:06:17;;;;;;;;;;;3.90;74.50;;;4.39;52.85;99318.44;5032538;27;113739;-71
2023/03/04 07:08:43;;;;;;;;;;;3.90;74.60;;;4.42;52.23;99328.88;5029306;27;123451;-70
2023/03/04 07:11:10;;;;;;;;;;;3.90;74.60;;;4.41;52.39;99332.69;5041905;27;123915;-71
2023/03/04 07:13:37;;;;;;;;;;;3.90;74.60;;;4.39;52.94;99334.88;5039552;27;113573;-70
2023/03/04 07:16:08;;;;;;;;;;;3.90;74.60;;;4.39;52.72;99345.81;5054769;27;113896;-70
2023/03/04 07:18:35;;;;;;;;;;;3.90;74.60;;;4.34;52.75;99332.06;5053533;27;124330;-70
2023/03/04 07:21:01;;;;;;;;;;;3.90;74.60;;;4.29;52.14;99333.94;5055747;27;124095;-71
2023/03/04 07:23:27;;;;;;;;;;;3.90;74.60;;;4.22;53.03;99334.16;5055423;27;114561;-70
2023/03/04 07:25:53;;;;;;;;;;;4.40;75.30;;;4.17;53.36;99342.31;5052838;27;113858;-70
2023/03/04 07:28:20;;;;;;;;;;;3.80;74.90;;;4.16;53.07;99340.63;5054804;27;124877;-70
2023/03/04 07:30:46;;;;;;;;;;;3.70;75.30;;;4.14;52.88;99337.34;5031054;27;124244;-71
2023/03/04 07:33:13;;;;;;;;;;;3.70;75.30;;;4.20;53.64;99353.53;5029451;28;115232;-71
2023/03/04 07:35:39;;;;;;;;;;;3.70;76.00;;;4.27;53.74;99347.03;5019214;28;113724;-72
2023/03/04 07:38:06;;;;;;;;;;;3.80;76.40;;;4.26;53.47;99350.88;5027956;28;124220;-71
2023/03/04 07:40:32;;;;;;;;;;;3.70;76.20;;;4.24;53.69;99344.81;5027155;28;124165;-71
2023/03/04 07:42:59;;;;;;;;;;;3.70;76.40;;;4.24;53.87;99353.03;5008711;28;113496;-71
2023/03/04 07:45:25;;;;;;;;;;;3.70;76.50;;;4.25;53.94;99357.44;5016070;28;112899;-71
2023/03/04 07:47:53;;;;;;;;;;;3.90;76.70;;;4.22;53.60;99358.78;5035351;28;124735;-73
2023/03/04 07:50:19;;;;;;;;;;;3.70;76.50;;;4.21;54.22;99354.38;5029494;28;124532;-72
2023/03/04 07:52:47;;;;;;;;;;;3.70;76.60;;;4.23;53.57;99357.69;5029919;28;112926;-72
2023/03/04 07:55:14;;;;;;;;;;;3.70;76.60;;;4.25;53.98;99362.91;5009482;28;112341;-72
2023/03/04 07:57:43;;;;;;;;;;;3.70;76.70;;;4.26;54.00;99365.38;5033056;28;124079;-75
2023/03/04 08:00:11;;;;;;;;;;;3.70;76.60;;;4.29;53.43;99370.31;5010853;28;124079;-72
2023/03/04 08:02:37;;;;;;;;;;;3.80;76.60;;;4.27;53.64;99366.19;5046716;27;113986;-72
2023/03/04 08:05:03;;;;;;;;;;;3.80;76.60;;;4.21;53.73;99368.03;5044596;27;113891;-72
2023/03/04 08:07:30;;;;;;;;;;;3.70;76.80;;;4.17;53.78;99366.91;5050845;27;123794;-72
2023/03/04 08:09:56;;;;;;;;;;;3.70;76.70;;;4.17;53.87;99370.47;5049822;27;123868;-72
2023/03/04 08:12:24;;;;;;;;;;;3.70;76.90;;;4.17;54.02;99373.19;5030385;27;114268;-71
2023/03/04 08:14:50;;;;;;;;;;;3.70;76.90;;;4.17;54.43;99375.13;5034588;27;113334;-70
2023/03/04 08:17:17;;;;;;;;;;;3.60;77.10;;;4.17;54.63;99369.66;5051515;27;124041;-71
2023/03/04 08:19:43;;;;;;;;;;;3.60;78.00;;;4.19;54.16;99375.66;5050063;27;123106;-70
2023/03/04 08:22:09;;;;;;;;;;;3.70;78.10;;;4.17;54.80;99386.06;5055554;27;115335;-70
2023/03/04 08:24:36;;;;;;;;;;;3.60;78.90;;;4.14;54.85;99381.09;5039379;27;114305;-72
2023/03/04 08:27:03;;;;;;;;;;;3.60;79.00;;;4.15;54.87;99380.00;5040578;27;125101;-70
2023/03/04 08:29:29;;;;;;;;;;;3.50;79.30;;;4.17;54.95;99380.59;5047811;27;124038;-70
2023/03/04 08:31:56;;;;;;;;;;;3.60;79.20;;;4.19;54.87;99389.34;5049691;27;115098;-73
2023/03/04 08:34:25;;;;;;;;;;;3.60;79.20;;;4.24;54.35;99385.84;5057218;27;113978;-70
2023/03/04 08:36:52;;;;;;;;;;;3.70;79.10;;;4.28;54.29;99390.56;5045862;27;123428;-69
2023/03/04 08:39:19;;;;;;;;;;;3.70;78.80;;;4.32;54.36;99386.22;5049422;27;122102;-71
2023/03/04 08:41:46;;;;;;;;;;;3.80;78.70;;;4.36;54.21;99384.63;5034045;27;113357;-71
2023/03/04 08:44:13;;;;;;;;;;;3.80;78.60;;;4.39;53.89;99389.56;5045711;27;113758;-71
2023/03/04 08:46:41;;;;;;;;;;;3.90;78.50;;;4.40;54.26;99391.22;5042725;27;124670;-71
2023/03/04 08:49:10;;;;;;;;;;;3.70;78.20;;;4.39;54.22;99392.31;5043996;27;123750;-71
2023/03/04 08:51:37;;;;;;;;;;;3.90;78.50;;;4.38;54.38;99393.41;5038302;27;114678;-78
2023/03/04 08:54:04;;;;;;;;;;;3.90;78.60;;;4.35;54.39;99387.59;5045208;27;112876;-71
2023/03/04 08:56:30;;;;;;;;;;;3.90;78.60;;;4.33;54.48;99387.88;5043937;27;124332;-71
2023/03/04 08:58:57;;;;;;;;;;;3.80;78.50;;;4.33;54.15;99384.31;5041469;27;123148;-72
2023/03/04 09:01:23;;;;;;;;;;;3.90;78.60;;;4.31;54.88;99390.03;5066166;27;114313;-71
2023/03/04 09:03:50;;;;;;;;;;;3.90;78.50;;;4.35;54.66;99384.88;5046019;27;113995;-74
2023/03/04 09:06:16;;;;;;;;;;;3.90;78.60;;;4.40;54.61;99396.69;5053943;27;123818;-72
2023/03/04 09:08:44;;;;;;;;;;;3.90;78.60;;;4.46;53.92;99391.28;5044832;27;123910;-72
2023/03/04 09:11:11;;;;;;;;;;;4.00;78.70;;;4.45;54.76;99403.31;5048721;27;115504;-72
2023/03/04 09:13:37;;;;;;;;;;;3.90;78.70;;;4.45;54.08;99403.31;5045787;27;114823;-72
2023/03/04 09:16:10;;;;;;;;;;;3.90;78.70;;;4.49;54.26;99399.00;5067828;27;124384;-72
2023/03/04 09:18:36;;;;;;;;;;;4.00;78.80;;;4.51;54.22;99402.28;5038188;27;124686;-72
2023/03/04 09:21:02;;;;;;;;;;;4.00;78.70;;;4.55;54.04;99403.44;5035375;27;114475;-73
2023/03/04 09:23:30;;;;;;;;;;;4.00;78.80;;;4.60;54.14;99401.56;5041278;27;114358;-72
2023/03/04 09:25:56;;;;;;;;;;;4.10;78.80;;;4.64;54.00;99402.69;5027030;27;123624;-71
2023/03/04 09:28:22;;;;;;;;;;;4.10;78.70;;;4.67;54.18;99401.34;5045704;27;124264;-72
2023/03/04 09:30:50;;;;;;;;;;;4.10;78.50;;;4.70;53.55;99400.84;5048889;27;114347;-73
2023/03/04 09:33:16;;;;;;;;;;;4.20;78.50;;;4.73;54.24;99400.31;5048986;27;113731;-73
2023/03/04 09:35:42;;;;;;;;;;;4.20;78.40;;;4.76;53.83;99399.81;5047574;27;124041;-72
2023/03/04 09:38:09;;;;;;;;;;;4.20;78.30;;;4.73;53.32;99405.81;5042020;27;123898;-73
2023/03/04 09:40:44;;;;;;;;;;;4.20;78.40;;;4.73;53.98;99396.75;5041916;27;114340;-72
2023/03/04 09:43:18;;;;;;;;;;;4.20;78.20;;;4.73;53.64;99394.00;5040730;27;113639;-73
2023/03/04 09:45:53;;;;;;;;;;;4.20;78.20;;;4.78;53.02;99394.06;5046466;27;124409;-72
2023/03/04 09:48:21;;;;;;;;;;;4.20;78.10;;;4.79;53.58;99388.34;5043711;27;124121;-71
2023/03/04 09:51:08;;;;;;;;;;;3.00;76.90;;;4.87;53.33;99390.59;5048981;27;114597;-72
2023/03/04 09:53:59;;;;;;;;;;;4.30;78.10;;;4.91;53.14;99396.38;5043288;27;113614;-71
2023/03/04 09:56:26;;;;;;;;;;;4.40;78.00;;;4.92;52.76;99391.75;5044456;27;124091;-72
2023/03/04 09:59:04;;;;;;;;;;;4.40;77.80;;;4.99;52.95;99392.31;5025722;27;123073;-72
2023/03/04 10:01:36;;;;;;;;;;;4.40;77.70;;;5.03;53.20;99391.53;5047108;27;114430;-71
2023/03/04 10:04:13;;;;;;;;;;;4.40;77.80;;;5.12;53.19;99385.59;5038307;27;115515;-72
2023/03/04 10:06:41;;;;;;;;;;;4.50;78.80;;;5.14;52.78;99395.19;5062807;27;124128;-71
2023/03/04 10:09:14;;;;;;;;;;;4.60;78.40;;;5.21;52.53;99392.22;5048540;27;123024;-71
2023/03/04 10:11:44;;;;;;;;;;;4.60;78.10;;;5.27;52.61;99396.66;5046945;27;113814;-72
2023/03/04 10:14:22;;;;;;;;;;;4.70;78.00;;;5.32;52.55;99389.31;5043066;27;114686;-71
2023/03/04 10:16:56;;;;;;;;;;;4.70;77.70;;;5.32;52.24;99391.22;5045209;27;125706;-72
2023/03/04 10:19:51;;;;;;;;;;;4.70;77.10;;;5.35;52.51;99390.69;5044494;27;124304;-71
2023/03/04 10:22:36;;;;;;;;;;;4.70;77.10;;;5.38;52.44;99381.94;5044187;27;114676;-71
2023/03/04 10:25:21;;;;;;;;;;;4.80;77.00;;;5.42;51.92;99383.06;5036947;27;113634;-71
2023/03/04 10:28:01;;;;;;;;;;;4.80;76.80;;;5.46;51.73;99380.63;5044468;27;124175;-71
2023/03/04 10:30:52;;;;;;;;;;;4.90;76.70;;;5.48;51.78;99381.16;5046835;27;123497;-71
2023/03/04 10:33:29;;;;;;;;;;;4.90;76.50;;;5.51;51.35;99377.91;5041426;27;114379;-71
2023/03/04 10:36:03;;;;;;;;;;;4.90;76.30;;;5.52;51.41;99379.56;5030849;27;112886;-71
2023/03/04 10:38:34;;;;;;;;;;;4.90;76.00;;;5.48;51.14;99378.44;5045230;27;124760;-71
2023/03/04 10:41:14;;;;;;;;;;;5.00;75.90;;;5.45;51.53;99373.47;5042222;27;124417;-71
2023/03/04 10:43:44;;;;;;;;;;;4.90;75.60;;;5.42;51.40;99371.28;5046047;27;113543;-72
2023/03/04 10:46:11;;;;;;;;;;;4.90;75.60;;;5.47;51.24;99372.13;5046435;27;113648;-72
2023/03/04 10:48:41;;;;;;;;;;;5.00;75.80;;;5.53;50.84;99370.22;5045035;27;124389;-71
2023/03/04 10:51:16;;;;;;;;;;;5.00;75.80;;;5.60;50.46;99368.09;5033824;27;123890;-71
2023/03/04 10:53:43;;;;;;;;;;;5.00;75.70;;;5.66;50.91;99368.94;5040496;27;115492;-71
2023/03/04 10:56:32;;;;;;;;;;;5.10;75.60;;;5.71;50.24;99361.56;5044156;27;115195;-71
2023/03/04 10:59:30;;;;;;;;;;;5.20;75.90;;;5.69;50.79;99358.25;5044946;27;124361;-72
2023/03/04 11:01:57;;;;;;;;;;;5.20;75.10;;;5.66;50.79;99347.00;5033350;27;122139;-71
2023/03/04 11:04:25;;;;;;;;;;;5.20;74.80;;;5.63;50.63;99353.03;5041780;27;114133;-72
2023/03/04 11:06:52;;;;;;;;;;;5.20;74.60;;;5.62;50.56;99345.91;5046355;27;113353;-72
2023/03/04 11:09:25;;;;;;;;;;;5.10;74.50;;;5.61;50.46;99355.22;5042970;27;124742;-72
2023/03/04 11:11:54;;;;;;;;;;;5.10;74.40;;;5.57;49.88;99351.38;5046362;27;123741;-72
2023/03/04 11:14:36;;;;;;;;;;;5.10;74.30;;;5.56;50.37;99346.94;5045400;27;114168;-71
2023/03/04 11:17:28;;;;;;;;;;;5.00;74.10;;;5.54;50.21;99344.50;5042951;27;112822;-71
2023/03/04 11:19:57;;;;;;;;;;;5.00;74.10;;;5.56;50.76;99345.03;5047755;27;124451;-72
2023/03/04 11:22:24;;;;;;;;;;;5.10;74.30;;;5.60;50.11;99342.59;5045930;27;123920;-72
2023/03/04 11:25:06;;;;;;;;;;;5.10;74.50;;;5.60;49.99;99346.16;5039787;27;113982;-72
2023/03/04 11:27:47;;;;;;;;;;;5.10;74.00;;;5.60;50.09;99332.47;5032098;27;113231;-72
2023/03/04 11:30:26;;;;;;;;;;;5.10;74.00;;;5.62;49.58;99344.00;5043780;27;124114;-72
2023/03/04 11:32:55;;;;;;;;;;;5.10;73.90;;;5.58;49.78;99334.63;5044169;27;124073;-73